sensor_id;sensor_type;location;lat;lon;timestamp;P1;durP1;ratioP1;P2;durP2;ratioP2
64832;SDS011;51290;45.060;38.948;2023-02-11T00:00:16;9.68;;;5.85;;
64832;SDS011;51290;45.060;38.948;2023-02-11T00:02:43;9.80;;;6.25;;
64832;SDS011;51290;45.060;38.948;2023-02-11T00:05:09;10.80;;;5.88;;
64832;SDS011;51290;45.060;38.948;2023-02-11T00:07:35;17.75;;;9.93;;
64832;SDS011;51290;45.060;38.948;2023-02-11T00:10:01;13.43;;;5.55;;
64832;SDS011;51290;45.060;38.948;2023-02-11T00:12:30;17.85;;;9.35;;
64832;SDS011;51290;45.060;38.948;2023-02-11T00:14:56;12.05;;;7.10;;
64832;SDS011;51290;45.060;38.948;2023-02-11T00:17:22;12.90;;;9.23;;
64832;SDS011;51290;45.060;38.948;2023-02-11T00:19:48;20.23;;;9.70;;
64832;SDS011;51290;45.060;38.948;2023-02-11T00:22:18;15.88;;;5.82;;
64832;SDS011;51290;45.060;38.948;2023-02-11T00:24:44;9.00;;;6.43;;
64832;SDS011;51290;45.060;38.948;2023-02-11T00:27:10;8.13;;;5.45;;
64832;SDS011;51290;45.060;38.948;2023-02-11T00:29:37;10.50;;;6.72;;
64832;SDS011;51290;45.060;38.948;2023-02-11T00:32:03;6.82;;;4.35;;
64832;SDS011;51290;45.060;38.948;2023-02-11T00:34:30;7.40;;;5.43;;
64832;SDS011;51290;45.060;38.948;2023-02-11T00:36:56;9.25;;;5.88;;
64832;SDS011;51290;45.060;38.948;2023-02-11T00:39:22;16.90;;;7.10;;
64832;SDS011;51290;45.060;38.948;2023-02-11T00:41:49;4.93;;;3.83;;
64832;SDS011;51290;45.060;38.948;2023-02-11T00:44:16;5.93;;;5.13;;
64832;SDS011;51290;45.060;38.948;2023-02-11T00:46:42;6.28;;;4.47;;
64832;SDS011;51290;45.060;38.948;2023-02-11T00:49:09;4.78;;;3.60;;
64832;SDS011;51290;45.060;38.948;2023-02-11T00:51:35;13.65;;;6.55;;
64832;SDS011;51290;45.060;38.948;2023-02-11T00:54:02;5.25;;;4.45;;
64832;SDS011;51290;45.060;38.948;2023-02-11T00:56:28;8.35;;;5.20;;
64832;SDS011;51290;45.060;38.948;2023-02-11T00:58:55;8.68;;;4.82;;
64832;SDS011;51290;45.060;38.948;2023-02-11T01:01:22;8.43;;;5.00;;
64832;SDS011;51290;45.060;38.948;2023-02-11T01:03:48;12.98;;;7.15;;
64832;SDS011;51290;45.060;38.948;2023-02-11T01:06:14;7.90;;;5.45;;
64832;SDS011;51290;45.060;38.948;2023-02-11T01:08:41;7.93;;;3.97;;
64832;SDS011;51290;45.060;38.948;2023-02-11T01:11:11;7.10;;;3.90;;
64832;SDS011;51290;45.060;38.948;2023-02-11T01:13:39;20.52;;;6.65;;
64832;SDS011;51290;45.060;38.948;2023-02-11T01:16:06;12.10;;;6.93;;
64832;SDS011;51290;45.060;38.948;2023-02-11T01:18:33;7.13;;;5.10;;
64832;SDS011;51290;45.060;38.948;2023-02-11T01:21:00;13.02;;;6.00;;
64832;SDS011;51290;45.060;38.948;2023-02-11T01:23:26;10.18;;;6.13;;
64832;SDS011;51290;45.060;38.948;2023-02-11T01:25:52;9.93;;;5.93;;
64832;SDS011;51290;45.060;38.948;2023-02-11T01:28:19;10.63;;;5.88;;
64832;SDS011;51290;45.060;38.948;2023-02-11T01:30:47;20.15;;;9.00;;
64832;SDS011;51290;45.060;38.948;2023-02-11T01:33:13;12.90;;;6.38;;
64832;SDS011;51290;45.060;38.948;2023-02-11T01:35:40;11.32;;;6.80;;
64832;SDS011;51290;45.060;38.948;2023-02-11T01:38:06;11.00;;;5.20;;
64832;SDS011;51290;45.060;38.948;2023-02-11T01:40:38;9.80;;;7.50;;
64832;SDS011;51290;45.060;38.948;2023-02-11T01:43:04;8.82;;;6.55;;
64832;SDS011;51290;45.060;38.948;2023-02-11T01:48:11;9.05;;;5.85;;
64832;SDS011;51290;45.060;38.948;2023-02-11T01:50:40;4.53;;;4.13;;
64832;SDS011;51290;45.060;38.948;2023-02-11T01:53:08;16.73;;;5.15;;
64832;SDS011;51290;45.060;38.948;2023-02-11T01:55:53;12.90;;;7.38;;
64832;SDS011;51290;45.060;38.948;2023-02-11T01:58:39;12.90;;;8.25;;
64832;SDS011;51290;45.060;38.948;2023-02-11T02:01:09;10.77;;;6.70;;
64832;SDS011;51290;45.060;38.948;2023-02-11T02:03:38;6.82;;;4.88;;
64832;SDS011;51290;45.060;38.948;2023-02-11T02:06:09;23.50;;;5.80;;
64832;SDS011;51290;45.060;38.948;2023-02-11T02:08:55;9.80;;;5.85;;
64832;SDS011;51290;45.060;38.948;2023-02-11T02:13:53;7.40;;;5.68;;
64832;SDS011;51290;45.060;38.948;2023-02-11T02:16:20;7.55;;;4.25;;
64832;SDS011;51290;45.060;38.948;2023-02-11T02:30:37;10.30;;;6.13;;
64832;SDS011;51290;45.060;38.948;2023-02-11T02:33:27;16.10;;;7.63;;
64832;SDS011;51290;45.060;38.948;2023-02-11T02:41:53;12.63;;;7.50;;
64832;SDS011;51290;45.060;38.948;2023-02-11T02:44:20;8.45;;;6.90;;
64832;SDS011;51290;45.060;38.948;2023-02-11T02:46:47;11.25;;;7.40;;
64832;SDS011;51290;45.060;38.948;2023-02-11T02:49:14;14.05;;;9.05;;
64832;SDS011;51290;45.060;38.948;2023-02-11T02:51:46;14.50;;;9.02;;
64832;SDS011;51290;45.060;38.948;2023-02-11T03:03:21;16.65;;;7.05;;
64832;SDS011;51290;45.060;38.948;2023-02-11T03:08:58;14.25;;;8.13;;
64832;SDS011;51290;45.060;38.948;2023-02-11T03:11:25;23.55;;;7.78;;
64832;SDS011;51290;45.060;38.948;2023-02-11T03:13:52;11.30;;;7.40;;
64832;SDS011;51290;45.060;38.948;2023-02-11T03:16:22;10.50;;;5.15;;
64832;SDS011;51290;45.060;38.948;2023-02-11T03:18:56;9.35;;;5.68;;
64832;SDS011;51290;45.060;38.948;2023-02-11T03:21:42;6.63;;;4.65;;
64832;SDS011;51290;45.060;38.948;2023-02-11T03:24:19;10.35;;;6.50;;
64832;SDS011;51290;45.060;38.948;2023-02-11T03:27:01;9.55;;;5.47;;
64832;SDS011;51290;45.060;38.948;2023-02-11T03:35:20;17.92;;;6.45;;
64832;SDS011;51290;45.060;38.948;2023-02-11T03:38:22;3.75;;;3.42;;
64832;SDS011;51290;45.060;38.948;2023-02-11T03:40:48;5.88;;;5.00;;
64832;SDS011;51290;45.060;38.948;2023-02-11T03:43:24;11.50;;;6.32;;
64832;SDS011;51290;45.060;38.948;2023-02-11T03:46:02;13.25;;;5.70;;
64832;SDS011;51290;45.060;38.948;2023-02-11T03:48:31;23.98;;;9.40;;
64832;SDS011;51290;45.060;38.948;2023-02-11T03:51:00;14.05;;;8.07;;
64832;SDS011;51290;45.060;38.948;2023-02-11T03:53:29;15.38;;;7.97;;
64832;SDS011;51290;45.060;38.948;2023-02-11T03:55:55;11.13;;;4.15;;
64832;SDS011;51290;45.060;38.948;2023-02-11T03:58:24;13.15;;;6.25;;
64832;SDS011;51290;45.060;38.948;2023-02-11T04:00:50;12.18;;;5.72;;
64832;SDS011;51290;45.060;38.948;2023-02-11T04:03:16;8.65;;;5.40;;
64832;SDS011;51290;45.060;38.948;2023-02-11T04:05:43;7.82;;;5.63;;
64832;SDS011;51290;45.060;38.948;2023-02-11T04:08:09;6.15;;;5.25;;
64832;SDS011;51290;45.060;38.948;2023-02-11T04:10:35;8.63;;;5.93;;
64832;SDS011;51290;45.060;38.948;2023-02-11T04:13:01;5.78;;;5.22;;
64832;SDS011;51290;45.060;38.948;2023-02-11T04:15:27;15.85;;;5.95;;
64832;SDS011;51290;45.060;38.948;2023-02-11T04:17:53;10.57;;;6.13;;
64832;SDS011;51290;45.060;38.948;2023-02-11T04:20:19;8.20;;;5.88;;
64832;SDS011;51290;45.060;38.948;2023-02-11T04:22:45;36.97;;;6.07;;
64832;SDS011;51290;45.060;38.948;2023-02-11T04:25:11;16.20;;;6.20;;
64832;SDS011;51290;45.060;38.948;2023-02-11T04:27:37;7.13;;;5.32;;
64832;SDS011;51290;45.060;38.948;2023-02-11T04:30:04;17.58;;;7.85;;
64832;SDS011;51290;45.060;38.948;2023-02-11T04:32:31;11.57;;;6.68;;
64832;SDS011;51290;45.060;38.948;2023-02-11T04:34:57;13.00;;;6.22;;
64832;SDS011;51290;45.060;38.948;2023-02-11T04:37:23;12.35;;;6.13;;
64832;SDS011;51290;45.060;38.948;2023-02-11T04:39:49;14.43;;;8.05;;
64832;SDS011;51290;45.060;38.948;2023-02-11T04:42:15;16.48;;;6.30;;
64832;SDS011;51290;45.060;38.948;2023-02-11T04:44:41;10.18;;;5.03;;
64832;SDS011;51290;45.060;38.948;2023-02-11T04:47:07;9.95;;;7.10;;
64832;SDS011;51290;45.060;38.948;2023-02-11T04:49:33;15.38;;;5.97;;
64832;SDS011;51290;45.060;38.948;2023-02-11T04:51:59;7.03;;;4.40;;
64832;SDS011;51290;45.060;38.948;2023-02-11T04:54:25;10.05;;;6.60;;
64832;SDS011;51290;45.060;38.948;2023-02-11T04:56:51;5.45;;;3.97;;
64832;SDS011;51290;45.060;38.948;2023-02-11T04:59:17;11.48;;;7.72;;
64832;SDS011;51290;45.060;38.948;2023-02-11T05:01:43;8.27;;;7.05;;
64832;SDS011;51290;45.060;38.948;2023-02-11T05:04:09;14.48;;;6.78;;
64832;SDS011;51290;45.060;38.948;2023-02-11T05:06:36;3.20;;;2.90;;
64832;SDS011;51290;45.060;38.948;2023-02-11T05:09:04;10.32;;;7.93;;
64832;SDS011;51290;45.060;38.948;2023-02-11T05:11:30;7.88;;;4.82;;
64832;SDS011;51290;45.060;38.948;2023-02-11T05:13:56;10.13;;;6.28;;
64832;SDS011;51290;45.060;38.948;2023-02-11T05:16:22;6.47;;;5.80;;
64832;SDS011;51290;45.060;38.948;2023-02-11T05:18:48;8.88;;;4.97;;
64832;SDS011;51290;45.060;38.948;2023-02-11T05:21:15;8.13;;;5.10;;
64832;SDS011;51290;45.060;38.948;2023-02-11T05:23:43;8.85;;;5.88;;
64832;SDS011;51290;45.060;38.948;2023-02-11T05:26:10;15.00;;;6.50;;
64832;SDS011;51290;45.060;38.948;2023-02-11T05:28:36;16.88;;;9.13;;
64832;SDS011;51290;45.060;38.948;2023-02-11T05:31:03;14.38;;;5.45;;
64832;SDS011;51290;45.060;38.948;2023-02-11T05:33:29;13.52;;;6.65;;
64832;SDS011;51290;45.060;38.948;2023-02-11T05:36:01;8.25;;;5.28;;
64832;SDS011;51290;45.060;38.948;2023-02-11T05:38:29;12.93;;;6.65;;
64832;SDS011;51290;45.060;38.948;2023-02-11T05:40:55;13.15;;;8.25;;
64832;SDS011;51290;45.060;38.948;2023-02-11T05:43:21;7.28;;;6.03;;
64832;SDS011;51290;45.060;38.948;2023-02-11T05:45:47;23.70;;;7.47;;
64832;SDS011;51290;45.060;38.948;2023-02-11T05:48:13;25.83;;;6.93;;
64832;SDS011;51290;45.060;38.948;2023-02-11T05:50:40;13.95;;;5.25;;
64832;SDS011;51290;45.060;38.948;2023-02-11T05:53:06;16.13;;;6.88;;
64832;SDS011;51290;45.060;38.948;2023-02-11T05:55:32;9.88;;;6.65;;
64832;SDS011;51290;45.060;38.948;2023-02-11T05:57:58;23.92;;;11.75;;
64832;SDS011;51290;45.060;38.948;2023-02-11T06:00:24;13.45;;;8.32;;
64832;SDS011;51290;45.060;38.948;2023-02-11T06:02:50;21.30;;;9.35;;
64832;SDS011;51290;45.060;38.948;2023-02-11T06:05:16;9.68;;;5.97;;
64832;SDS011;51290;45.060;38.948;2023-02-11T06:07:42;14.32;;;8.70;;
64832;SDS011;51290;45.060;38.948;2023-02-11T06:10:09;11.30;;;7.03;;
64832;SDS011;51290;45.060;38.948;2023-02-11T06:12:36;12.60;;;7.13;;
64832;SDS011;51290;45.060;38.948;2023-02-11T06:15:02;14.77;;;7.05;;
64832;SDS011;51290;45.060;38.948;2023-02-11T06:17:29;16.45;;;8.80;;
64832;SDS011;51290;45.060;38.948;2023-02-11T06:19:58;18.00;;;9.60;;
64832;SDS011;51290;45.060;38.948;2023-02-11T06:22:25;12.07;;;7.00;;
64832;SDS011;51290;45.060;38.948;2023-02-11T06:24:51;14.13;;;8.73;;
64832;SDS011;51290;45.060;38.948;2023-02-11T06:27:17;20.35;;;6.93;;
64832;SDS011;51290;45.060;38.948;2023-02-11T06:29:44;11.95;;;6.90;;
64832;SDS011;51290;45.060;38.948;2023-02-11T06:32:11;18.52;;;10.48;;
64832;SDS011;51290;45.060;38.948;2023-02-11T06:34:37;10.23;;;8.32;;
64832;SDS011;51290;45.060;38.948;2023-02-11T06:37:03;10.80;;;8.10;;
64832;SDS011;51290;45.060;38.948;2023-02-11T06:39:29;13.88;;;7.88;;
64832;SDS011;51290;45.060;38.948;2023-02-11T06:41:56;20.15;;;8.48;;
64832;SDS011;51290;45.060;38.948;2023-02-11T06:44:23;27.30;;;11.80;;
64832;SDS011;51290;45.060;38.948;2023-02-11T06:46:49;20.27;;;10.70;;
64832;SDS011;51290;45.060;38.948;2023-02-11T06:49:16;20.65;;;9.27;;
64832;SDS011;51290;45.060;38.948;2023-02-11T06:51:43;17.95;;;9.13;;
64832;SDS011;51290;45.060;38.948;2023-02-11T06:54:09;24.15;;;11.93;;
64832;SDS011;51290;45.060;38.948;2023-02-11T06:56:40;15.85;;;10.15;;
64832;SDS011;51290;45.060;38.948;2023-02-11T06:59:11;22.67;;;9.93;;
64832;SDS011;51290;45.060;38.948;2023-02-11T07:01:41;37.13;;;13.40;;
64832;SDS011;51290;45.060;38.948;2023-02-11T07:04:07;17.50;;;8.95;;
64832;SDS011;51290;45.060;38.948;2023-02-11T07:06:33;27.02;;;14.60;;
64832;SDS011;51290;45.060;38.948;2023-02-11T07:09:02;22.58;;;10.63;;
64832;SDS011;51290;45.060;38.948;2023-02-11T07:11:28;18.80;;;10.15;;
64832;SDS011;51290;45.060;38.948;2023-02-11T07:14:04;29.83;;;10.68;;
64832;SDS011;51290;45.060;38.948;2023-02-11T07:16:32;13.27;;;8.18;;
64832;SDS011;51290;45.060;38.948;2023-02-11T07:18:59;21.67;;;11.07;;
64832;SDS011;51290;45.060;38.948;2023-02-11T07:21:26;29.95;;;10.55;;
64832;SDS011;51290;45.060;38.948;2023-02-11T07:23:52;24.23;;;10.15;;
64832;SDS011;51290;45.060;38.948;2023-02-11T07:26:19;11.88;;;7.38;;
64832;SDS011;51290;45.060;38.948;2023-02-11T07:28:47;17.17;;;10.52;;
64832;SDS011;51290;45.060;38.948;2023-02-11T07:31:15;20.13;;;11.57;;
64832;SDS011;51290;45.060;38.948;2023-02-11T07:33:42;14.45;;;9.02;;
64832;SDS011;51290;45.060;38.948;2023-02-11T07:36:10;17.27;;;11.13;;
64832;SDS011;51290;45.060;38.948;2023-02-11T07:38:38;32.38;;;13.00;;
64832;SDS011;51290;45.060;38.948;2023-02-11T07:41:05;23.50;;;11.35;;
64832;SDS011;51290;45.060;38.948;2023-02-11T07:43:34;17.67;;;9.55;;
64832;SDS011;51290;45.060;38.948;2023-02-11T07:46:04;26.05;;;12.93;;
64832;SDS011;51290;45.060;38.948;2023-02-11T07:48:31;27.33;;;10.65;;
64832;SDS011;51290;45.060;38.948;2023-02-11T07:51:04;25.52;;;10.48;;
64832;SDS011;51290;45.060;38.948;2023-02-11T07:53:41;21.10;;;12.25;;
64832;SDS011;51290;45.060;38.948;2023-02-11T07:56:08;24.52;;;10.52;;
64832;SDS011;51290;45.060;38.948;2023-02-11T07:58:35;21.70;;;11.75;;
64832;SDS011;51290;45.060;38.948;2023-02-11T08:01:06;30.33;;;10.63;;
64832;SDS011;51290;45.060;38.948;2023-02-11T08:03:34;22.05;;;11.38;;
64832;SDS011;51290;45.060;38.948;2023-02-11T08:06:04;23.77;;;11.57;;
64832;SDS011;51290;45.060;38.948;2023-02-11T08:08:31;19.63;;;12.75;;
64832;SDS011;51290;45.060;38.948;2023-02-11T08:10:58;21.52;;;10.65;;
64832;SDS011;51290;45.060;38.948;2023-02-11T08:13:29;27.38;;;14.32;;
64832;SDS011;51290;45.060;38.948;2023-02-11T08:15:56;28.70;;;13.00;;
64832;SDS011;51290;45.060;38.948;2023-02-11T08:18:22;31.35;;;15.48;;
64832;SDS011;51290;45.060;38.948;2023-02-11T08:20:48;36.80;;;15.52;;
64832;SDS011;51290;45.060;38.948;2023-02-11T08:23:14;23.38;;;12.63;;
64832;SDS011;51290;45.060;38.948;2023-02-11T08:25:40;32.35;;;12.85;;
64832;SDS011;51290;45.060;38.948;2023-02-11T08:28:06;21.25;;;12.07;;
64832;SDS011;51290;45.060;38.948;2023-02-11T08:30:33;22.77;;;11.55;;
64832;SDS011;51290;45.060;38.948;2023-02-11T08:33:00;20.48;;;10.77;;
64832;SDS011;51290;45.060;38.948;2023-02-11T08:35:26;36.60;;;12.15;;
64832;SDS011;51290;45.060;38.948;2023-02-11T08:37:52;27.98;;;12.10;;
64832;SDS011;51290;45.060;38.948;2023-02-11T08:40:18;22.77;;;12.88;;
64832;SDS011;51290;45.060;38.948;2023-02-11T08:42:45;20.13;;;11.95;;
64832;SDS011;51290;45.060;38.948;2023-02-11T08:45:11;19.40;;;10.63;;
64832;SDS011;51290;45.060;38.948;2023-02-11T08:47:37;22.42;;;11.07;;
64832;SDS011;51290;45.060;38.948;2023-02-11T08:50:04;20.05;;;9.80;;
64832;SDS011;51290;45.060;38.948;2023-02-11T08:52:31;30.90;;;13.77;;
64832;SDS011;51290;45.060;38.948;2023-02-11T08:54:57;24.40;;;14.30;;
64832;SDS011;51290;45.060;38.948;2023-02-11T08:57:23;26.67;;;15.25;;
64832;SDS011;51290;45.060;38.948;2023-02-11T08:59:49;40.20;;;11.98;;
64832;SDS011;51290;45.060;38.948;2023-02-11T09:02:15;27.15;;;13.65;;
64832;SDS011;51290;45.060;38.948;2023-02-11T09:04:40;17.63;;;9.80;;
64832;SDS011;51290;45.060;38.948;2023-02-11T09:07:06;22.38;;;11.25;;
64832;SDS011;51290;45.060;38.948;2023-02-11T09:09:32;28.85;;;14.15;;
64832;SDS011;51290;45.060;38.948;2023-02-11T09:11:58;19.85;;;10.73;;
64832;SDS011;51290;45.060;38.948;2023-02-11T09:14:26;23.52;;;12.13;;
64832;SDS011;51290;45.060;38.948;2023-02-11T09:16:52;33.95;;;14.32;;
64832;SDS011;51290;45.060;38.948;2023-02-11T09:19:18;23.90;;;12.60;;
64832;SDS011;51290;45.060;38.948;2023-02-11T09:21:45;27.77;;;11.10;;
64832;SDS011;51290;45.060;38.948;2023-02-11T09:24:11;27.48;;;10.05;;
64832;SDS011;51290;45.060;38.948;2023-02-11T09:26:39;27.15;;;12.85;;
64832;SDS011;51290;45.060;38.948;2023-02-11T09:29:07;37.88;;;13.52;;
64832;SDS011;51290;45.060;38.948;2023-02-11T09:31:33;21.90;;;11.63;;
64832;SDS011;51290;45.060;38.948;2023-02-11T09:34:00;51.90;;;15.15;;
64832;SDS011;51290;45.060;38.948;2023-02-11T09:36:30;23.08;;;12.25;;
64832;SDS011;51290;45.060;38.948;2023-02-11T09:38:59;24.67;;;11.23;;
64832;SDS011;51290;45.060;38.948;2023-02-11T09:44:05;26.83;;;14.10;;
64832;SDS011;51290;45.060;38.948;2023-02-11T09:46:34;27.80;;;11.07;;
64832;SDS011;51290;45.060;38.948;2023-02-11T09:49:04;25.77;;;14.32;;
64832;SDS011;51290;45.060;38.948;2023-02-11T09:54:15;14.98;;;10.15;;
64832;SDS011;51290;45.060;38.948;2023-02-11T09:56:52;23.45;;;12.23;;
64832;SDS011;51290;45.060;38.948;2023-02-11T09:59:18;23.17;;;13.73;;
64832;SDS011;51290;45.060;38.948;2023-02-11T10:04:28;25.70;;;12.85;;
64832;SDS011;51290;45.060;38.948;2023-02-11T10:07:17;31.63;;;14.65;;
64832;SDS011;51290;45.060;38.948;2023-02-11T10:10:06;25.98;;;12.60;;
64832;SDS011;51290;45.060;38.948;2023-02-11T10:12:57;32.00;;;10.93;;
64832;SDS011;51290;45.060;38.948;2023-02-11T10:15:44;32.55;;;15.95;;
64832;SDS011;51290;45.060;38.948;2023-02-11T10:23:32;26.58;;;15.43;;
64832;SDS011;51290;45.060;38.948;2023-02-11T10:26:08;16.35;;;11.32;;
64832;SDS011;51290;45.060;38.948;2023-02-11T10:28:37;25.93;;;12.47;;
64832;SDS011;51290;45.060;38.948;2023-02-11T10:31:18;20.80;;;11.45;;
64832;SDS011;51290;45.060;38.948;2023-02-11T10:36:30;26.63;;;12.98;;
64832;SDS011;51290;45.060;38.948;2023-02-11T10:38:59;22.30;;;9.52;;
64832;SDS011;51290;45.060;38.948;2023-02-11T10:41:30;20.85;;;11.65;;
64832;SDS011;51290;45.060;38.948;2023-02-11T10:43:59;25.05;;;14.63;;
64832;SDS011;51290;45.060;38.948;2023-02-11T10:46:28;21.05;;;10.85;;
64832;SDS011;51290;45.060;38.948;2023-02-11T10:48:57;20.42;;;11.57;;
64832;SDS011;51290;45.060;38.948;2023-02-11T10:56:34;19.65;;;10.23;;
64832;SDS011;51290;45.060;38.948;2023-02-11T11:01:50;20.25;;;11.52;;
64832;SDS011;51290;45.060;38.948;2023-02-11T11:07:15;24.42;;;12.05;;
64832;SDS011;51290;45.060;38.948;2023-02-11T11:12:50;25.02;;;13.10;;
64832;SDS011;51290;45.060;38.948;2023-02-11T11:17:34;17.13;;;10.50;;
64832;SDS011;51290;45.060;38.948;2023-02-11T11:20:21;22.15;;;10.50;;
64832;SDS011;51290;45.060;38.948;2023-02-11T11:22:53;17.08;;;8.77;;
64832;SDS011;51290;45.060;38.948;2023-02-11T11:25:35;21.85;;;10.00;;
64832;SDS011;51290;45.060;38.948;2023-02-11T11:28:03;24.33;;;10.75;;
64832;SDS011;51290;45.060;38.948;2023-02-11T11:30:33;20.13;;;10.35;;
64832;SDS011;51290;45.060;38.948;2023-02-11T11:33:11;26.02;;;11.60;;
64832;SDS011;51290;45.060;38.948;2023-02-11T11:35:53;18.50;;;10.13;;
64832;SDS011;51290;45.060;38.948;2023-02-11T11:38:32;32.55;;;12.32;;
64832;SDS011;51290;45.060;38.948;2023-02-11T11:43:39;22.83;;;12.48;;
64832;SDS011;51290;45.060;38.948;2023-02-11T11:46:20;16.40;;;8.65;;
64832;SDS011;51290;45.060;38.948;2023-02-11T11:48:49;23.05;;;10.93;;
64832;SDS011;51290;45.060;38.948;2023-02-11T11:51:17;20.80;;;11.05;;
64832;SDS011;51290;45.060;38.948;2023-02-11T11:53:50;15.50;;;8.02;;
64832;SDS011;51290;45.060;38.948;2023-02-11T11:56:26;22.92;;;12.60;;
64832;SDS011;51290;45.060;38.948;2023-02-11T11:58:59;22.40;;;10.23;;
64832;SDS011;51290;45.060;38.948;2023-02-11T12:15:18;24.13;;;8.48;;
64832;SDS011;51290;45.060;38.948;2023-02-11T12:26:39;20.65;;;10.40;;
64832;SDS011;51290;45.060;38.948;2023-02-11T12:29:29;23.90;;;13.63;;
64832;SDS011;51290;45.060;38.948;2023-02-11T12:40:16;25.15;;;11.40;;
64832;SDS011;51290;45.060;38.948;2023-02-11T12:43:04;16.08;;;9.27;;
64832;SDS011;51290;45.060;38.948;2023-02-11T12:54:40;18.05;;;8.38;;
64832;SDS011;51290;45.060;38.948;2023-02-11T12:57:20;19.52;;;8.15;;
64832;SDS011;51290;45.060;38.948;2023-02-11T13:00:11;20.38;;;8.02;;
64832;SDS011;51290;45.060;38.948;2023-02-11T13:08:03;14.75;;;9.00;;
64832;SDS011;51290;45.060;38.948;2023-02-11T13:10:36;17.77;;;11.70;;
64832;SDS011;51290;45.060;38.948;2023-02-11T13:13:10;19.75;;;10.98;;
64832;SDS011;51290;45.060;38.948;2023-02-11T13:16:04;14.10;;;7.13;;
64832;SDS011;51290;45.060;38.948;2023-02-11T13:22:10;17.25;;;9.98;;
64832;SDS011;51290;45.060;38.948;2023-02-11T13:32:15;15.38;;;8.27;;
64832;SDS011;51290;45.060;38.948;2023-02-11T13:45:17;12.18;;;9.68;;
64832;SDS011;51290;45.060;38.948;2023-02-11T13:48:04;18.10;;;8.60;;
64832;SDS011;51290;45.060;38.948;2023-02-11T13:50:35;23.20;;;10.05;;
64832;SDS011;51290;45.060;38.948;2023-02-11T13:53:04;22.55;;;11.30;;
64832;SDS011;51290;45.060;38.948;2023-02-11T13:55:34;19.58;;;8.45;;
64832;SDS011;51290;45.060;38.948;2023-02-11T14:16:22;16.25;;;8.73;;
64832;SDS011;51290;45.060;38.948;2023-02-11T14:23:52;14.25;;;8.35;;
64832;SDS011;51290;45.060;38.948;2023-02-11T14:29:42;7.60;;;4.85;;
64832;SDS011;51290;45.060;38.948;2023-02-11T14:32:21;8.02;;;6.03;;
64832;SDS011;51290;45.060;38.948;2023-02-11T14:41:23;23.33;;;9.48;;
64832;SDS011;51290;45.060;38.948;2023-02-11T14:43:56;8.85;;;6.10;;
64832;SDS011;51290;45.060;38.948;2023-02-11T14:46:25;23.88;;;6.43;;
64832;SDS011;51290;45.060;38.948;2023-02-11T14:49:00;9.48;;;6.53;;
64832;SDS011;51290;45.060;38.948;2023-02-11T14:51:29;17.98;;;6.70;;
64832;SDS011;51290;45.060;38.948;2023-02-11T14:56:39;10.63;;;6.50;;
64832;SDS011;51290;45.060;38.948;2023-02-11T14:59:16;10.95;;;7.60;;
64832;SDS011;51290;45.060;38.948;2023-02-11T15:01:45;10.45;;;5.35;;
64832;SDS011;51290;45.060;38.948;2023-02-11T15:04:24;12.05;;;6.78;;
64832;SDS011;51290;45.060;38.948;2023-02-11T15:06:51;14.27;;;5.55;;
64832;SDS011;51290;45.060;38.948;2023-02-11T15:09:18;10.57;;;6.53;;
64832;SDS011;51290;45.060;38.948;2023-02-11T15:11:52;14.68;;;7.30;;
64832;SDS011;51290;45.060;38.948;2023-02-11T15:14:29;19.55;;;7.80;;
64832;SDS011;51290;45.060;38.948;2023-02-11T15:17:00;20.10;;;8.77;;
64832;SDS011;51290;45.060;38.948;2023-02-11T15:22:16;16.52;;;8.07;;
64832;SDS011;51290;45.060;38.948;2023-02-11T15:25:08;13.30;;;9.07;;
64832;SDS011;51290;45.060;38.948;2023-02-11T15:27:43;18.25;;;8.57;;
64832;SDS011;51290;45.060;38.948;2023-02-11T15:30:31;13.45;;;7.90;;
64832;SDS011;51290;45.060;38.948;2023-02-11T15:32:59;15.98;;;8.38;;
64832;SDS011;51290;45.060;38.948;2023-02-11T15:35:37;20.98;;;8.40;;
64832;SDS011;51290;45.060;38.948;2023-02-11T15:38:05;13.20;;;8.85;;
64832;SDS011;51290;45.060;38.948;2023-02-11T15:40:33;18.23;;;9.00;;
64832;SDS011;51290;45.060;38.948;2023-02-11T15:43:04;13.07;;;8.85;;
64832;SDS011;51290;45.060;38.948;2023-02-11T15:45:40;15.25;;;9.18;;
64832;SDS011;51290;45.060;38.948;2023-02-11T15:48:18;23.07;;;9.87;;
64832;SDS011;51290;45.060;38.948;2023-02-11T15:51:07;14.18;;;8.63;;
64832;SDS011;51290;45.060;38.948;2023-02-11T15:53:37;21.48;;;10.90;;
64832;SDS011;51290;45.060;38.948;2023-02-11T15:58:39;17.10;;;9.45;;
64832;SDS011;51290;45.060;38.948;2023-02-11T16:01:07;20.70;;;9.88;;
64832;SDS011;51290;45.060;38.948;2023-02-11T16:03:34;17.77;;;10.23;;
64832;SDS011;51290;45.060;38.948;2023-02-11T16:08:58;15.35;;;8.85;;
64832;SDS011;51290;45.060;38.948;2023-02-11T16:11:56;16.88;;;6.88;;
64832;SDS011;51290;45.060;38.948;2023-02-11T16:14:27;18.90;;;10.00;;
64832;SDS011;51290;45.060;38.948;2023-02-11T16:17:39;21.25;;;10.45;;
64832;SDS011;51290;45.060;38.948;2023-02-11T16:19:43;14.13;;;8.07;;
64832;SDS011;51290;45.060;38.948;2023-02-11T16:22:18;12.43;;;9.10;;
64832;SDS011;51290;45.060;38.948;2023-02-11T16:24:59;20.85;;;10.55;;
64832;SDS011;51290;45.060;38.948;2023-02-11T16:27:27;26.65;;;10.52;;
64832;SDS011;51290;45.060;38.948;2023-02-11T16:29:58;11.25;;;7.40;;
64832;SDS011;51290;45.060;38.948;2023-02-11T16:32:25;18.23;;;7.43;;
64832;SDS011;51290;45.060;38.948;2023-02-11T16:34:53;25.08;;;9.18;;
64832;SDS011;51290;45.060;38.948;2023-02-11T16:37:22;12.30;;;7.63;;
64832;SDS011;51290;45.060;38.948;2023-02-11T16:39:49;14.73;;;7.15;;
64832;SDS011;51290;45.060;38.948;2023-02-11T16:42:18;9.88;;;5.57;;
64832;SDS011;51290;45.060;38.948;2023-02-11T16:44:45;11.73;;;6.93;;
64832;SDS011;51290;45.060;38.948;2023-02-11T16:47:22;16.88;;;8.55;;
64832;SDS011;51290;45.060;38.948;2023-02-11T16:49:50;19.85;;;8.43;;
64832;SDS011;51290;45.060;38.948;2023-02-11T16:52:16;27.33;;;8.20;;
64832;SDS011;51290;45.060;38.948;2023-02-11T16:54:44;26.08;;;15.05;;
64832;SDS011;51290;45.060;38.948;2023-02-11T16:57:14;27.23;;;16.80;;
64832;SDS011;51290;45.060;38.948;2023-02-11T16:59:42;25.08;;;14.27;;
64832;SDS011;51290;45.060;38.948;2023-02-11T17:02:51;30.90;;;13.05;;
64832;SDS011;51290;45.060;38.948;2023-02-11T17:04:59;18.65;;;9.27;;
64832;SDS011;51290;45.060;38.948;2023-02-11T17:07:27;22.98;;;9.82;;
64832;SDS011;51290;45.060;38.948;2023-02-11T17:09:54;11.70;;;8.10;;
64832;SDS011;51290;45.060;38.948;2023-02-11T17:12:20;21.13;;;8.80;;
64832;SDS011;51290;45.060;38.948;2023-02-11T17:14:49;28.17;;;9.68;;
64832;SDS011;51290;45.060;38.948;2023-02-11T17:17:16;11.75;;;7.68;;
64832;SDS011;51290;45.060;38.948;2023-02-11T17:19:42;11.63;;;6.30;;
64832;SDS011;51290;45.060;38.948;2023-02-11T17:22:09;27.70;;;9.82;;
64832;SDS011;51290;45.060;38.948;2023-02-11T17:24:36;13.25;;;8.13;;
64832;SDS011;51290;45.060;38.948;2023-02-11T17:27:02;13.98;;;6.45;;
64832;SDS011;51290;45.060;38.948;2023-02-11T17:29:28;14.35;;;7.82;;
64832;SDS011;51290;45.060;38.948;2023-02-11T17:31:54;11.30;;;5.10;;
64832;SDS011;51290;45.060;38.948;2023-02-11T17:34:21;21.00;;;4.38;;
64832;SDS011;51290;45.060;38.948;2023-02-11T17:36:48;7.82;;;5.00;;
64832;SDS011;51290;45.060;38.948;2023-02-11T17:39:14;4.75;;;3.58;;